sensor_id;sensor_type;location;lat;lon;timestamp;P1;durP1;ratioP1;P2;durP2;ratioP2
48006;SDS011;33771;48.180;11.400;2023-06-10T00:00:41;8.13;;;5.22;;
48006;SDS011;33771;48.180;11.400;2023-06-10T00:03:07;7.55;;;5.07;;
48006;SDS011;33771;48.180;11.400;2023-06-10T00:05:34;10.98;;;6.07;;
48006;SDS011;33771;48.180;11.400;2023-06-10T00:08:00;7.72;;;5.25;;
48006;SDS011;33771;48.180;11.400;2023-06-10T00:10:32;9.15;;;5.80;;
48006;SDS011;33771;48.180;11.400;2023-06-10T00:13:00;8.88;;;5.90;;
48006;SDS011;33771;48.180;11.400;2023-06-10T00:15:26;6.80;;;5.88;;
48006;SDS011;33771;48.180;11.400;2023-06-10T00:17:51;6.30;;;5.70;;
48006;SDS011;33771;48.180;11.400;2023-06-10T00:20:20;8.93;;;6.72;;
48006;SDS011;33771;48.180;11.400;2023-06-10T00:22:48;9.35;;;6.57;;
48006;SDS011;33771;48.180;11.400;2023-06-10T00:25:14;10.00;;;6.25;;
48006;SDS011;33771;48.180;11.400;2023-06-10T00:27:40;8.57;;;6.43;;
48006;SDS011;33771;48.180;11.400;2023-06-10T00:30:06;9.25;;;6.15;;
48006;SDS011;33771;48.180;11.400;2023-06-10T00:32:35;8.13;;;6.95;;
48006;SDS011;33771;48.180;11.400;2023-06-10T00:35:04;9.73;;;6.80;;
48006;SDS011;33771;48.180;11.400;2023-06-10T00:37:31;8.00;;;7.20;;
48006;SDS011;33771;48.180;11.400;2023-06-10T00:39:57;8.63;;;6.55;;
48006;SDS011;33771;48.180;11.400;2023-06-10T00:42:23;9.55;;;7.18;;
48006;SDS011;33771;48.180;11.400;2023-06-10T00:44:50;8.57;;;6.88;;
48006;SDS011;33771;48.180;11.400;2023-06-10T00:47:16;9.27;;;7.15;;
48006;SDS011;33771;48.180;11.400;2023-06-10T00:49:41;8.27;;;6.30;;
48006;SDS011;33771;48.180;11.400;2023-06-10T00:52:08;9.35;;;6.75;;
48006;SDS011;33771;48.180;11.400;2023-06-10T00:54:35;8.88;;;6.68;;
48006;SDS011;33771;48.180;11.400;2023-06-10T00:57:02;10.60;;;6.72;;
48006;SDS011;33771;48.180;11.400;2023-06-10T00:59:29;9.35;;;7.20;;
48006;SDS011;33771;48.180;11.400;2023-06-10T01:01:56;7.85;;;6.95;;
48006;SDS011;33771;48.180;11.400;2023-06-10T01:04:22;7.80;;;7.00;;
48006;SDS011;33771;48.180;11.400;2023-06-10T01:12:41;8.00;;;6.82;;
48006;SDS011;33771;48.180;11.400;2023-06-10T01:15:13;8.77;;;6.90;;
48006;SDS011;33771;48.180;11.400;2023-06-10T01:17:56;7.35;;;6.53;;
48006;SDS011;33771;48.180;11.400;2023-06-10T01:20:23;9.00;;;6.75;;
48006;SDS011;33771;48.180;11.400;2023-06-10T01:22:51;9.23;;;6.68;;
48006;SDS011;33771;48.180;11.400;2023-06-10T01:25:19;9.10;;;6.80;;
48006;SDS011;33771;48.180;11.400;2023-06-10T01:27:45;9.10;;;7.25;;
48006;SDS011;33771;48.180;11.400;2023-06-10T01:30:18;8.68;;;7.57;;
48006;SDS011;33771;48.180;11.400;2023-06-10T01:32:48;7.93;;;7.13;;
48006;SDS011;33771;48.180;11.400;2023-06-10T01:35:17;8.70;;;7.80;;
48006;SDS011;33771;48.180;11.400;2023-06-10T01:37:45;9.82;;;7.93;;
48006;SDS011;33771;48.180;11.400;2023-06-10T01:40:11;8.93;;;7.13;;
48006;SDS011;33771;48.180;11.400;2023-06-10T01:42:38;8.88;;;7.38;;
48006;SDS011;33771;48.180;11.400;2023-06-10T01:45:04;8.23;;;7.20;;
48006;SDS011;33771;48.180;11.400;2023-06-10T01:47:30;8.73;;;6.50;;
48006;SDS011;33771;48.180;11.400;2023-06-10T01:49:56;10.13;;;6.82;;
48006;SDS011;33771;48.180;11.400;2023-06-10T01:52:22;10.15;;;7.65;;
48006;SDS011;33771;48.180;11.400;2023-06-10T01:54:47;8.73;;;7.30;;
48006;SDS011;33771;48.180;11.400;2023-06-10T01:57:13;8.77;;;7.55;;
48006;SDS011;33771;48.180;11.400;2023-06-10T01:59:38;8.75;;;7.15;;
48006;SDS011;33771;48.180;11.400;2023-06-10T02:02:05;8.60;;;7.07;;
48006;SDS011;33771;48.180;11.400;2023-06-10T02:04:30;10.15;;;8.30;;
48006;SDS011;33771;48.180;11.400;2023-06-10T02:06:56;10.48;;;8.88;;
48006;SDS011;33771;48.180;11.400;2023-06-10T02:09:22;11.88;;;8.95;;
48006;SDS011;33771;48.180;11.400;2023-06-10T02:11:48;11.55;;;8.55;;
48006;SDS011;33771;48.180;11.400;2023-06-10T02:14:14;11.73;;;9.25;;
48006;SDS011;33771;48.180;11.400;2023-06-10T02:16:39;9.70;;;8.55;;
48006;SDS011;33771;48.180;11.400;2023-06-10T02:19:06;9.63;;;8.63;;
48006;SDS011;33771;48.180;11.400;2023-06-10T02:21:32;12.35;;;8.90;;
48006;SDS011;33771;48.180;11.400;2023-06-10T02:23:59;9.57;;;8.57;;
48006;SDS011;33771;48.180;11.400;2023-06-10T02:26:27;9.95;;;8.63;;
48006;SDS011;33771;48.180;11.400;2023-06-10T02:28:53;9.70;;;8.50;;
48006;SDS011;33771;48.180;11.400;2023-06-10T02:31:18;9.35;;;8.45;;
48006;SDS011;33771;48.180;11.400;2023-06-10T02:33:45;8.75;;;7.80;;
48006;SDS011;33771;48.180;11.400;2023-06-10T02:36:11;9.32;;;8.32;;
48006;SDS011;33771;48.180;11.400;2023-06-10T02:38:38;9.32;;;8.20;;
48006;SDS011;33771;48.180;11.400;2023-06-10T02:41:07;10.60;;;8.32;;
48006;SDS011;33771;48.180;11.400;2023-06-10T02:43:33;9.23;;;7.82;;
48006;SDS011;33771;48.180;11.400;2023-06-10T02:45:58;9.38;;;8.40;;
48006;SDS011;33771;48.180;11.400;2023-06-10T02:48:24;9.02;;;8.02;;
48006;SDS011;33771;48.180;11.400;2023-06-10T02:50:49;9.07;;;8.18;;
48006;SDS011;33771;48.180;11.400;2023-06-10T02:53:15;12.98;;;8.25;;
48006;SDS011;33771;48.180;11.400;2023-06-10T02:55:41;8.63;;;7.72;;
48006;SDS011;33771;48.180;11.400;2023-06-10T02:58:07;10.35;;;8.10;;
48006;SDS011;33771;48.180;11.400;2023-06-10T03:00:32;12.98;;;8.63;;
48006;SDS011;33771;48.180;11.400;2023-06-10T03:02:58;9.73;;;8.65;;
48006;SDS011;33771;48.180;11.400;2023-06-10T03:05:27;10.20;;;8.57;;
48006;SDS011;33771;48.180;11.400;2023-06-10T03:07:53;9.13;;;7.97;;
48006;SDS011;33771;48.180;11.400;2023-06-10T03:10:19;10.52;;;8.70;;
48006;SDS011;33771;48.180;11.400;2023-06-10T03:12:45;10.77;;;8.85;;
48006;SDS011;33771;48.180;11.400;2023-06-10T03:15:10;12.60;;;8.00;;
48006;SDS011;33771;48.180;11.400;2023-06-10T03:17:36;11.32;;;8.50;;
48006;SDS011;33771;48.180;11.400;2023-06-10T03:20:02;14.60;;;10.70;;
48006;SDS011;33771;48.180;11.400;2023-06-10T03:22:30;12.90;;;9.68;;
48006;SDS011;33771;48.180;11.400;2023-06-10T03:24:56;10.70;;;9.60;;
48006;SDS011;33771;48.180;11.400;2023-06-10T03:27:22;11.25;;;9.23;;
48006;SDS011;33771;48.180;11.400;2023-06-10T03:29:47;10.40;;;9.23;;
48006;SDS011;33771;48.180;11.400;2023-06-10T03:32:13;14.65;;;9.80;;
48006;SDS011;33771;48.180;11.400;2023-06-10T03:34:39;11.70;;;9.77;;
48006;SDS011;33771;48.180;11.400;2023-06-10T03:37:05;11.65;;;10.45;;
48006;SDS011;33771;48.180;11.400;2023-06-10T03:39:31;12.55;;;10.88;;
48006;SDS011;33771;48.180;11.400;2023-06-10T03:41:57;12.68;;;9.98;;
48006;SDS011;33771;48.180;11.400;2023-06-10T03:44:24;13.00;;;10.27;;
48006;SDS011;33771;48.180;11.400;2023-06-10T03:46:51;13.15;;;10.35;;
48006;SDS011;33771;48.180;11.400;2023-06-10T03:49:16;11.80;;;10.55;;
48006;SDS011;33771;48.180;11.400;2023-06-10T03:51:42;11.35;;;9.82;;
48006;SDS011;33771;48.180;11.400;2023-06-10T03:54:08;11.75;;;10.55;;
48006;SDS011;33771;48.180;11.400;2023-06-10T03:56:34;12.10;;;10.02;;
48006;SDS011;33771;48.180;11.400;2023-06-10T03:59:00;11.02;;;9.00;;
48006;SDS011;33771;48.180;11.400;2023-06-10T04:01:25;10.85;;;8.85;;
48006;SDS011;33771;48.180;11.400;2023-06-10T04:03:51;11.07;;;9.93;;
48006;SDS011;33771;48.180;11.400;2023-06-10T04:06:19;13.68;;;10.15;;
48006;SDS011;33771;48.180;11.400;2023-06-10T04:08:44;11.07;;;9.88;;
48006;SDS011;33771;48.180;11.400;2023-06-10T04:11:10;11.52;;;10.32;;
48006;SDS011;33771;48.180;11.400;2023-06-10T04:13:35;12.35;;;10.52;;
48006;SDS011;33771;48.180;11.400;2023-06-10T04:16:01;14.10;;;11.30;;
48006;SDS011;33771;48.180;11.400;2023-06-10T04:18:27;16.83;;;11.50;;
48006;SDS011;33771;48.180;11.400;2023-06-10T04:20:53;13.50;;;10.52;;
48006;SDS011;33771;48.180;11.400;2023-06-10T04:23:19;11.55;;;10.35;;
48006;SDS011;33771;48.180;11.400;2023-06-10T04:25:44;14.13;;;10.43;;
48006;SDS011;33771;48.180;11.400;2023-06-10T04:28:10;11.07;;;9.85;;
48006;SDS011;33771;48.180;11.400;2023-06-10T04:30:35;12.65;;;10.50;;
48006;SDS011;33771;48.180;11.400;2023-06-10T04:33:03;13.30;;;10.40;;
48006;SDS011;33771;48.180;11.400;2023-06-10T04:35:31;12.13;;;10.25;;
48006;SDS011;33771;48.180;11.400;2023-06-10T04:37:57;14.50;;;11.07;;
48006;SDS011;33771;48.180;11.400;2023-06-10T04:40:23;14.07;;;10.93;;
48006;SDS011;33771;48.180;11.400;2023-06-10T04:42:48;12.48;;;10.98;;
48006;SDS011;33771;48.180;11.400;2023-06-10T04:45:14;13.23;;;10.70;;
48006;SDS011;33771;48.180;11.400;2023-06-10T04:47:39;13.02;;;10.25;;
48006;SDS011;33771;48.180;11.400;2023-06-10T04:50:05;15.32;;;10.43;;
48006;SDS011;33771;48.180;11.400;2023-06-10T04:52:31;12.23;;;10.93;;
48006;SDS011;33771;48.180;11.400;2023-06-10T04:54:58;12.52;;;10.68;;
48006;SDS011;33771;48.180;11.400;2023-06-10T04:57:24;11.70;;;10.05;;
48006;SDS011;33771;48.180;11.400;2023-06-10T04:59:49;14.60;;;10.48;;
48006;SDS011;33771;48.180;11.400;2023-06-10T05:02:15;13.13;;;10.93;;
48006;SDS011;33771;48.180;11.400;2023-06-10T05:04:40;12.43;;;10.60;;
48006;SDS011;33771;48.180;11.400;2023-06-10T05:07:06;13.70;;;10.77;;
48006;SDS011;33771;48.180;11.400;2023-06-10T05:09:32;11.25;;;10.02;;
48006;SDS011;33771;48.180;11.400;2023-06-10T05:11:58;16.17;;;9.93;;
48006;SDS011;33771;48.180;11.400;2023-06-10T05:14:23;12.43;;;10.43;;
48006;SDS011;33771;48.180;11.400;2023-06-10T05:16:49;13.70;;;10.63;;
48006;SDS011;33771;48.180;11.400;2023-06-10T05:19:14;11.55;;;9.65;;
48006;SDS011;33771;48.180;11.400;2023-06-10T05:21:43;11.90;;;10.60;;
48006;SDS011;33771;48.180;11.400;2023-06-10T05:24:09;12.65;;;10.68;;
48006;SDS011;33771;48.180;11.400;2023-06-10T05:26:35;11.73;;;9.85;;
48006;SDS011;33771;48.180;11.400;2023-06-10T05:29:04;11.60;;;10.40;;
48006;SDS011;33771;48.180;11.400;2023-06-10T05:31:30;13.05;;;10.95;;
48006;SDS011;33771;48.180;11.400;2023-06-10T05:33:56;10.90;;;9.73;;
48006;SDS011;33771;48.180;11.400;2023-06-10T05:36:22;13.35;;;9.98;;
48006;SDS011;33771;48.180;11.400;2023-06-10T05:38:50;13.18;;;10.60;;
48006;SDS011;33771;48.180;11.400;2023-06-10T05:41:15;11.85;;;10.20;;
48006;SDS011;33771;48.180;11.400;2023-06-10T05:43:41;12.30;;;9.95;;
48006;SDS011;33771;48.180;11.400;2023-06-10T05:46:07;15.90;;;10.20;;
48006;SDS011;33771;48.180;11.400;2023-06-10T05:48:32;12.98;;;10.38;;
48006;SDS011;33771;48.180;11.400;2023-06-10T05:50:58;11.02;;;9.73;;
48006;SDS011;33771;48.180;11.400;2023-06-10T05:53:23;11.38;;;9.52;;
48006;SDS011;33771;48.180;11.400;2023-06-10T05:55:49;13.30;;;10.68;;
48006;SDS011;33771;48.180;11.400;2023-06-10T05:58:15;13.57;;;10.70;;
48006;SDS011;33771;48.180;11.400;2023-06-10T06:00:40;12.68;;;10.23;;
48006;SDS011;33771;48.180;11.400;2023-06-10T06:03:07;12.10;;;9.50;;
48006;SDS011;33771;48.180;11.400;2023-06-10T06:05:36;12.60;;;9.60;;
48006;SDS011;33771;48.180;11.400;2023-06-10T06:08:03;11.40;;;9.65;;
48006;SDS011;33771;48.180;11.400;2023-06-10T06:10:29;11.10;;;9.93;;
48006;SDS011;33771;48.180;11.400;2023-06-10T06:12:55;11.52;;;10.20;;
48006;SDS011;33771;48.180;11.400;2023-06-10T06:15:21;12.68;;;9.50;;
48006;SDS011;33771;48.180;11.400;2023-06-10T06:17:46;11.20;;;9.00;;
48006;SDS011;33771;48.180;11.400;2023-06-10T06:20:12;13.07;;;9.85;;
48006;SDS011;33771;48.180;11.400;2023-06-10T06:22:37;13.13;;;9.95;;
48006;SDS011;33771;48.180;11.400;2023-06-10T06:25:03;11.43;;;9.57;;
48006;SDS011;33771;48.180;11.400;2023-06-10T06:27:30;11.02;;;9.35;;
48006;SDS011;33771;48.180;11.400;2023-06-10T06:29:56;11.45;;;9.32;;
48006;SDS011;33771;48.180;11.400;2023-06-10T06:32:22;12.63;;;10.18;;
48006;SDS011;33771;48.180;11.400;2023-06-10T06:34:49;11.20;;;9.05;;
48006;SDS011;33771;48.180;11.400;2023-06-10T06:37:20;8.68;;;7.78;;
48006;SDS011;33771;48.180;11.400;2023-06-10T06:39:51;11.20;;;8.10;;
48006;SDS011;33771;48.180;11.400;2023-06-10T06:42:18;9.88;;;8.75;;
48006;SDS011;33771;48.180;11.400;2023-06-10T06:44:44;11.98;;;8.90;;
48006;SDS011;33771;48.180;11.400;2023-06-10T06:47:11;9.48;;;8.23;;
48006;SDS011;33771;48.180;11.400;2023-06-10T06:49:37;11.88;;;7.65;;
48006;SDS011;33771;48.180;11.400;2023-06-10T06:52:02;12.05;;;8.75;;
48006;SDS011;33771;48.180;11.400;2023-06-10T06:54:28;9.57;;;8.07;;
48006;SDS011;33771;48.180;11.400;2023-06-10T06:56:54;11.32;;;8.68;;
48006;SDS011;33771;48.180;11.400;2023-06-10T06:59:20;10.15;;;8.77;;
48006;SDS011;33771;48.180;11.400;2023-06-10T07:01:46;10.82;;;9.05;;
48006;SDS011;33771;48.180;11.400;2023-06-10T07:04:14;9.95;;;8.65;;
48006;SDS011;33771;48.180;11.400;2023-06-10T07:06:40;12.32;;;8.75;;
48006;SDS011;33771;48.180;11.400;2023-06-10T07:09:07;8.73;;;7.82;;
48006;SDS011;33771;48.180;11.400;2023-06-10T07:11:33;11.43;;;9.52;;
48006;SDS011;33771;48.180;11.400;2023-06-10T07:13:59;10.45;;;9.35;;
48006;SDS011;33771;48.180;11.400;2023-06-10T07:16:25;9.88;;;7.95;;
48006;SDS011;33771;48.180;11.400;2023-06-10T07:18:50;11.43;;;8.48;;
48006;SDS011;33771;48.180;11.400;2023-06-10T07:21:17;10.55;;;9.35;;
48006;SDS011;33771;48.180;11.400;2023-06-10T07:23:42;12.35;;;9.20;;
48006;SDS011;33771;48.180;11.400;2023-06-10T07:26:09;11.60;;;8.65;;
48006;SDS011;33771;48.180;11.400;2023-06-10T07:28:36;10.48;;;8.75;;
48006;SDS011;33771;48.180;11.400;2023-06-10T07:31:02;7.80;;;6.93;;
48006;SDS011;33771;48.180;11.400;2023-06-10T07:33:28;9.07;;;6.90;;
48006;SDS011;33771;48.180;11.400;2023-06-10T07:35:53;9.40;;;6.03;;
48006;SDS011;33771;48.180;11.400;2023-06-10T07:38:19;6.88;;;6.00;;
48006;SDS011;33771;48.180;11.400;2023-06-10T07:40:45;8.88;;;6.10;;
48006;SDS011;33771;48.180;11.400;2023-06-10T07:43:11;7.55;;;5.30;;
48006;SDS011;33771;48.180;11.400;2023-06-10T07:45:36;5.85;;;4.90;;
48006;SDS011;33771;48.180;11.400;2023-06-10T07:48:04;6.40;;;5.10;;
48006;SDS011;33771;48.180;11.400;2023-06-10T07:50:29;7.88;;;5.88;;
48006;SDS011;33771;48.180;11.400;2023-06-10T07:52:55;6.97;;;5.03;;
48006;SDS011;33771;48.180;11.400;2023-06-10T07:55:21;8.18;;;5.30;;
48006;SDS011;33771;48.180;11.400;2023-06-10T07:57:46;5.55;;;4.70;;
48006;SDS011;33771;48.180;11.400;2023-06-10T08:00:12;5.75;;;5.15;;
48006;SDS011;33771;48.180;11.400;2023-06-10T08:02:37;6.05;;;4.70;;
48006;SDS011;33771;48.180;11.400;2023-06-10T08:05:03;6.95;;;4.82;;
48006;SDS011;33771;48.180;11.400;2023-06-10T08:07:29;5.53;;;4.93;;
48006;SDS011;33771;48.180;11.400;2023-06-10T08:09:55;5.55;;;4.53;;
48006;SDS011;33771;48.180;11.400;2023-06-10T08:12:21;4.53;;;4.00;;
48006;SDS011;33771;48.180;11.400;2023-06-10T08:14:47;6.35;;;5.07;;
48006;SDS011;33771;48.180;11.400;2023-06-10T08:17:12;6.15;;;4.07;;
48006;SDS011;33771;48.180;11.400;2023-06-10T08:19:38;4.63;;;4.10;;
48006;SDS011;33771;48.180;11.400;2023-06-10T08:22:03;7.15;;;5.05;;
48006;SDS011;33771;48.180;11.400;2023-06-10T08:24:29;5.40;;;4.88;;
48006;SDS011;33771;48.180;11.400;2023-06-10T08:26:54;5.68;;;4.10;;
48006;SDS011;33771;48.180;11.400;2023-06-10T08:29:22;5.30;;;3.80;;
48006;SDS011;33771;48.180;11.400;2023-06-10T08:31:48;5.82;;;3.88;;
48006;SDS011;33771;48.180;11.400;2023-06-10T08:34:13;6.82;;;3.92;;
48006;SDS011;33771;48.180;11.400;2023-06-10T08:36:39;4.25;;;3.83;;
48006;SDS011;33771;48.180;11.400;2023-06-10T08:39:05;5.82;;;4.00;;
48006;SDS011;33771;48.180;11.400;2023-06-10T08:41:32;7.22;;;4.97;;
48006;SDS011;33771;48.180;11.400;2023-06-10T08:44:10;7.40;;;5.13;;
48006;SDS011;33771;48.180;11.400;2023-06-10T08:46:44;5.90;;;4.20;;
48006;SDS011;33771;48.180;11.400;2023-06-10T08:49:10;6.30;;;4.50;;
48006;SDS011;33771;48.180;11.400;2023-06-10T08:51:42;6.28;;;4.10;;
48006;SDS011;33771;48.180;11.400;2023-06-10T08:54:13;6.47;;;4.20;;
48006;SDS011;33771;48.180;11.400;2023-06-10T08:56:44;6.20;;;4.53;;
48006;SDS011;33771;48.180;11.400;2023-06-10T08:59:13;5.25;;;4.55;;
48006;SDS011;33771;48.180;11.400;2023-06-10T09:01:39;6.07;;;4.78;;
48006;SDS011;33771;48.180;11.400;2023-06-10T09:04:04;5.70;;;4.93;;
48006;SDS011;33771;48.180;11.400;2023-06-10T09:06:31;4.88;;;4.32;;
48006;SDS011;33771;48.180;11.400;2023-06-10T09:08:59;9.38;;;4.45;;
48006;SDS011;33771;48.180;11.400;2023-06-10T09:11:24;6.55;;;4.50;;
48006;SDS011;33771;48.180;11.400;2023-06-10T09:13:50;5.32;;;4.68;;
48006;SDS011;33771;48.180;11.400;2023-06-10T09:16:16;4.80;;;4.18;;
48006;SDS011;33771;48.180;11.400;2023-06-10T09:18:42;5.63;;;4.50;;
48006;SDS011;33771;48.180;11.400;2023-06-10T09:21:07;5.63;;;4.25;;
48006;SDS011;33771;48.180;11.400;2023-06-10T09:23:33;6.95;;;4.60;;
48006;SDS011;33771;48.180;11.400;2023-06-10T09:26:02;5.15;;;4.45;;
48006;SDS011;33771;48.180;11.400;2023-06-10T09:28:33;7.10;;;4.20;;
48006;SDS011;33771;48.180;11.400;2023-06-10T09:31:03;4.95;;;4.32;;
48006;SDS011;33771;48.180;11.400;2023-06-10T09:33:30;5.18;;;4.68;;
48006;SDS011;33771;48.180;11.400;2023-06-10T09:35:56;6.05;;;4.65;;
48006;SDS011;33771;48.180;11.400;2023-06-10T09:38:28;5.90;;;5.07;;
48006;SDS011;33771;48.180;11.400;2023-06-10T09:40:55;6.10;;;4.47;;
48006;SDS011;33771;48.180;11.400;2023-06-10T09:43:21;5.28;;;3.83;;
48006;SDS011;33771;48.180;11.400;2023-06-10T09:45:47;8.00;;;4.75;;
48006;SDS011;33771;48.180;11.400;2023-06-10T09:48:13;6.18;;;4.20;;
48006;SDS011;33771;48.180;11.400;2023-06-10T09:50:43;5.35;;;4.85;;
48006;SDS011;33771;48.180;11.400;2023-06-10T09:53:09;6.40;;;4.50;;
48006;SDS011;33771;48.180;11.400;2023-06-10T09:55:37;5.75;;;4.53;;
48006;SDS011;33771;48.180;11.400;2023-06-10T09:58:03;5.60;;;4.35;;
48006;SDS011;33771;48.180;11.400;2023-06-10T10:00:31;4.80;;;4.30;;
48006;SDS011;33771;48.180;11.400;2023-06-10T10:02:58;7.05;;;5.13;;
48006;SDS011;33771;48.180;11.400;2023-06-10T10:05:24;7.38;;;4.63;;
48006;SDS011;33771;48.180;11.400;2023-06-10T10:07:51;6.15;;;5.03;;
48006;SDS011;33771;48.180;11.400;2023-06-10T10:10:18;5.40;;;4.70;;
48006;SDS011;33771;48.180;11.400;2023-06-10T10:12:48;6.25;;;5.07;;
48006;SDS011;33771;48.180;11.400;2023-06-10T10:15:20;6.88;;;4.25;;
48006;SDS011;33771;48.180;11.400;2023-06-10T10:17:56;5.70;;;4.55;;
48006;SDS011;33771;48.180;11.400;2023-06-10T10:20:29;5.15;;;4.10;;
48006;SDS011;33771;48.180;11.400;2023-06-10T10:22:56;4.28;;;3.83;;
48006;SDS011;33771;48.180;11.400;2023-06-10T10:25:23;4.90;;;4.30;;
48006;SDS011;33771;48.180;11.400;2023-06-10T10:28:12;4.95;;;4.43;;
48006;SDS011;33771;48.180;11.400;2023-06-10T10:30:43;5.80;;;4.05;;
48006;SDS011;33771;48.180;11.400;2023-06-10T10:35:43;4.22;;;3.80;;
48006;SDS011;33771;48.180;11.400;2023-06-10T10:38:10;4.65;;;3.90;;
48006;SDS011;33771;48.180;11.400;2023-06-10T10:40:36;6.55;;;4.60;;
48006;SDS011;33771;48.180;11.400;2023-06-10T10:43:03;5.60;;;4.25;;
48006;SDS011;33771;48.180;11.400;2023-06-10T10:45:30;4.70;;;4.25;;
48006;SDS011;33771;48.180;11.400;2023-06-10T10:47:58;6.38;;;3.67;;
48006;SDS011;33771;48.180;11.400;2023-06-10T10:50:36;7.20;;;4.20;;
48006;SDS011;33771;48.180;11.400;2023-06-10T10:53:03;4.85;;;3.92;;
48006;SDS011;33771;48.180;11.400;2023-06-10T10:55:29;4.90;;;3.58;;
48006;SDS011;33771;48.180;11.400;2023-06-10T10:57:56;5.47;;;3.35;;
48006;SDS011;33771;48.180;11.400;2023-06-10T11:03:08;4.05;;;3.65;;
48006;SDS011;33771;48.180;11.400;2023-06-10T11:05:40;5.38;;;3.90;;
48006;SDS011;33771;48.180;11.400;2023-06-10T11:08:09;5.05;;;3.90;;
48006;SDS011;33771;48.180;11.400;2023-06-10T11:10:36;5.03;;;4.30;;
48006;SDS011;33771;48.180;11.400;2023-06-10T11:13:10;6.28;;;3.80;;
48006;SDS011;33771;48.180;11.400;2023-06-10T11:15:39;6.43;;;4.38;;
48006;SDS011;33771;48.180;11.400;2023-06-10T11:18:25;4.93;;;4.43;;
48006;SDS011;33771;48.180;11.400;2023-06-10T11:20:56;4.32;;;3.78;;
48006;SDS011;33771;48.180;11.400;2023-06-10T11:25:50;4.53;;;4.13;;
48006;SDS011;33771;48.180;11.400;2023-06-10T11:28:19;6.43;;;3.88;;
48006;SDS011;33771;48.180;11.400;2023-06-10T11:30:45;5.15;;;4.10;;
48006;SDS011;33771;48.180;11.400;2023-06-10T11:33:17;5.05;;;3.80;;
48006;SDS011;33771;48.180;11.400;2023-06-10T11:35:45;5.20;;;3.90;;
48006;SDS011;33771;48.180;11.400;2023-06-10T11:38:11;6.40;;;4.22;;
48006;SDS011;33771;48.180;11.400;2023-06-10T11:40:38;4.22;;;3.60;;
48006;SDS011;33771;48.180;11.400;2023-06-10T11:43:04;4.32;;;3.75;;
48006;SDS011;33771;48.180;11.400;2023-06-10T11:45:30;4.75;;;3.60;;
48006;SDS011;33771;48.180;11.400;2023-06-10T11:47:58;4.47;;;3.70;;
48006;SDS011;33771;48.180;11.400;2023-06-10T11:50:31;3.60;;;3.30;;
48006;SDS011;33771;48.180;11.400;2023-06-10T11:52:58;4.38;;;3.22;;
48006;SDS011;33771;48.180;11.400;2023-06-10T11:55:46;5.30;;;3.20;;
48006;SDS011;33771;48.180;11.400;2023-06-10T11:58:15;3.30;;;3.00;;
48006;SDS011;33771;48.180;11.400;2023-06-10T12:03:14;6.57;;;3.10;;
48006;SDS011;33771;48.180;11.400;2023-06-10T12:05:52;3.72;;;3.10;;
48006;SDS011;33771;48.180;11.400;2023-06-10T12:08:26;4.65;;;3.22;;
48006;SDS011;33771;48.180;11.400;2023-06-10T12:10:55;3.72;;;3.40;;
48006;SDS011;33771;48.180;11.400;2023-06-10T12:13:22;3.35;;;2.95;;
48006;SDS011;33771;48.180;11.400;2023-06-10T12:15:51;3.70;;;3.40;;
48006;SDS011;33771;48.180;11.400;2023-06-10T12:18:17;5.47;;;3.35;;
48006;SDS011;33771;48.180;11.400;2023-06-10T12:20:44;3.78;;;3.38;;
48006;SDS011;33771;48.180;11.400;2023-06-10T12:23:11;5.25;;;3.30;;
48006;SDS011;33771;48.180;11.400;2023-06-10T12:25:37;4.07;;;3.00;;
48006;SDS011;33771;48.180;11.400;2023-06-10T12:28:04;3.28;;;2.97;;
48006;SDS011;33771;48.180;11.400;2023-06-10T12:30:30;7.55;;;4.03;;
48006;SDS011;33771;48.180;11.400;2023-06-10T12:32:56;5.15;;;3.00;;
48006;SDS011;33771;48.180;11.400;2023-06-10T12:35:23;6.70;;;4.20;;
48006;SDS011;33771;48.180;11.400;2023-06-10T12:37:58;7.82;;;3.80;;
48006;SDS011;33771;48.180;11.400;2023-06-10T12:40:29;5.20;;;3.70;;
48006;SDS011;33771;48.180;11.400;2023-06-10T12:42:56;4.05;;;3.63;;
48006;SDS011;33771;48.180;11.400;2023-06-10T12:45:29;6.80;;;3.72;;
48006;SDS011;33771;48.180;11.400;2023-06-10T12:50:46;3.67;;;2.78;;
48006;SDS011;33771;48.180;11.400;2023-06-10T12:53:17;5.50;;;3.55;;
48006;SDS011;33771;48.180;11.400;2023-06-10T12:55:44;4.60;;;2.90;;
48006;SDS011;33771;48.180;11.400;2023-06-10T12:58:12;5.25;;;4.10;;
48006;SDS011;33771;48.180;11.400;2023-06-10T13:00:39;3.60;;;2.80;;
48006;SDS011;33771;48.180;11.400;2023-06-10T13:03:08;4.45;;;3.33;;
48006;SDS011;33771;48.180;11.400;2023-06-10T13:05:37;4.65;;;3.40;;
48006;SDS011;33771;48.180;11.400;2023-06-10T13:08:07;4.45;;;3.17;;
48006;SDS011;33771;48.180;11.400;2023-06-10T13:10:35;4.43;;;3.60;;
48006;SDS011;33771;48.180;11.400;2023-06-10T13:13:01;4.10;;;3.30;;
48006;SDS011;33771;48.180;11.400;2023-06-10T13:15:31;5.25;;;3.15;;
48006;SDS011;33771;48.180;11.400;2023-06-10T13:18:00;4.70;;;3.20;;
48006;SDS011;33771;48.180;11.400;2023-06-10T13:20:27;4.13;;;3.40;;
48006;SDS011;33771;48.180;11.400;2023-06-10T13:22:52;4.25;;;3.22;;
48006;SDS011;33771;48.180;11.400;2023-06-10T13:25:18;3.67;;;3.13;;
48006;SDS011;33771;48.180;11.400;2023-06-10T13:27:43;3.63;;;3.15;;
48006;SDS011;33771;48.180;11.400;2023-06-10T13:30:09;4.53;;;3.28;;
48006;SDS011;33771;48.180;11.400;2023-06-10T13:32:36;6.97;;;3.55;;
48006;SDS011;33771;48.180;11.400;2023-06-10T13:35:02;6.40;;;4.50;;
48006;SDS011;33771;48.180;11.400;2023-06-10T13:37:28;4.70;;;3.85;;
48006;SDS011;33771;48.180;11.400;2023-06-10T13:39:53;5.40;;;4.05;;
48006;SDS011;33771;48.180;11.400;2023-06-10T13:42:20;8.13;;;4.40;;
48006;SDS011;33771;48.180;11.400;2023-06-10T13:44:46;9.38;;;4.63;;
48006;SDS011;33771;48.180;11.400;2023-06-10T13:47:12;26.63;;;7.72;;
48006;SDS011;33771;48.180;11.400;2023-06-10T13:49:39;5.43;;;4.15;;
48006;SDS011;33771;48.180;11.400;2023-06-10T13:52:05;4.75;;;3.85;;
48006;SDS011;33771;48.180;11.400;2023-06-10T13:54:31;7.00;;;3.97;;
48006;SDS011;33771;48.180;11.400;2023-06-10T13:56:57;9.15;;;4.05;;
48006;SDS011;33771;48.180;11.400;2023-06-10T13:59:23;6.95;;;4.10;;
48006;SDS011;33771;48.180;11.400;2023-06-10T14:01:48;5.03;;;4.00;;
48006;SDS011;33771;48.180;11.400;2023-06-10T14:04:14;18.58;;;3.90;;
48006;SDS011;33771;48.180;11.400;2023-06-10T14:06:39;5.53;;;3.38;;
48006;SDS011;33771;48.180;11.400;2023-06-10T14:09:05;4.72;;;3.60;;
48006;SDS011;33771;48.180;11.400;2023-06-10T14:11:31;4.35;;;3.50;;
48006;SDS011;33771;48.180;11.400;2023-06-10T14:13:56;5.03;;;3.42;;
48006;SDS011;33771;48.180;11.400;2023-06-10T14:16:22;4.68;;;3.25;;
48006;SDS011;33771;48.180;11.400;2023-06-10T14:18:49;3.10;;;2.80;;
48006;SDS011;33771;48.180;11.400;2023-06-10T14:21:16;4.97;;;3.40;;
48006;SDS011;33771;48.180;11.400;2023-06-10T14:23:41;4.15;;;3.08;;
48006;SDS011;33771;48.180;11.400;2023-06-10T14:26:08;4.38;;;2.97;;
48006;SDS011;33771;48.180;11.400;2023-06-10T14:28:34;4.13;;;3.22;;
48006;SDS011;33771;48.180;11.400;2023-06-10T14:31:00;3.70;;;3.10;;
48006;SDS011;33771;48.180;11.400;2023-06-10T14:33:25;5.50;;;3.25;;
48006;SDS011;33771;48.180;11.400;2023-06-10T14:35:51;4.00;;;3.20;;
48006;SDS011;33771;48.180;11.400;2023-06-10T14:38:17;3.53;;;3.15;;
48006;SDS011;33771;48.180;11.400;2023-06-10T14:40:43;4.13;;;3.10;;
48006;SDS011;33771;48.180;11.400;2023-06-10T14:43:08;4.15;;;2.97;;
48006;SDS011;33771;48.180;11.400;2023-06-10T14:45:38;5.13;;;3.60;;